Aktualne dane pomiarowe

Uwaga, wersja testowa! Automatyczne pobieranie danych za pomocą narzędzi lub skryptów to umożliwiających jest zabronione.

Dane meteo z obszaru Polski uzyskane na podstawie depesz SYNOP pobieranych co godzinę z NWS. Najedź myszką na symbol przedstawiony w tabeli, aby uzyskać informacje co do jego znaczenia. Prosimy pamiętać, że to testowa wersja strony, która jeszcze nie jest ukończona. Stworzono również jest krótki FAQ dotyczący korzystania z tej podstrony Anomalie temperatury w chwili obecnej odniesione są do okresu referencyjnego 1951-2016. Okres ten będzie później zmieniony na 1981-2010. Kliknij ikonę aby pobrać plik CSV. Kliknij ikonę aby wygenerować mapę synoptyczną dla danego terminu.

Wybierz Datę:    

        

Kasprowy Wierch (12650)

Dane terminowe dla wybranej stacji. Kliknij datę, aby otrzymać dane z tego terminu dla wszystkich stacji.

TemperaturaZachmurzenieWiatrCiśnienieOpadyPogoda
 Data t td wb tx tn tg rh  Nt Nl Cl Cm Ch ws wd g1 g2 wx mslp ppp ch 24h 12h t ww ww w1 w2  
2019-07-04 23:00:00 7.0 1.1 3.8--- 6650.0wx-wx8wx---- 803.9 -0.9---------
2019-07-04 22:00:00 6.1 1.0 3.3--- 7050.0wx-wx8wx--8- 804.2 -0.6---------
2019-07-04 21:00:00 6.8 0.9 3.6--- 6650.0wx-wx9wx-109- 804.4 -0.5---------
2019-07-04 20:00:00 7.1 0.3 3.6--- 6250.0wx-wx5wx10105- 804.8 -0.4---------
2019-07-04 19:00:00 7.5 0.0 3.7--- 5950.0wx-wx3wx--3- 804.8 -0.6---------
2019-07-04 18:00:00 9.9 2.7 6.0 19.2 4.8- 6150.0wx-wx2wx--2- 804.9 -0.6- 0.012------
2019-07-04 17:00:00 11.6 1.5 6.5--- 5050.0wxwxwxwx2wx--2- 805.2 -0.5---------
2019-07-04 16:00:00 12.5 2.3 7.2--- 5050.0wxwxwxwx2wx---- 805.4 -0.4---------
2019-07-04 15:00:00 12.8 2.0 7.3--- 4850.0wxwxwxwx3wx--3- 805.5 -0.5---------
2019-07-04 14:00:00 13.2 1.8 7.4--- 4650.0wxwxwxwx3wx--3- 805.7 -0.3---------
2019-07-04 13:00:00 13.1 2.0 7.4--- 4750.0wxwxwxwx2wx--2- 805.8 0.0---------
2019-07-04 12:00:00 11.6 1.2 6.4--- 4950.0wxwxwxwx3wx--3- 806.0 0.6- 0.06------
2019-07-04 11:00:00 10.5 1.6 5.9--- 5450.0wxwxwxwx2wx--2- 806.0 0.9---------
2019-07-04 10:00:00 9.4 1.8 5.4--- 5950.0wxwxwxwx2wx--2- 805.8 0.9---------
2019-07-04 09:00:00 8.6 1.9 5.0--- 6350.0wxwxwxwxwx4wx--4- 805.4 0.8---------
2019-07-04 08:00:00 6.5 0.6 3.4--- 6650.0wxwxwxwx2wx--2- 805.1 0.7---------
2019-07-04 07:00:00 5.6 0.2 2.7--- 6850.0wxwxwxwx1wx---- 804.9 0.6---------
2019-07-04 06:00:00 4.8 -0.2 2.1 7.9 3.1- 7050.0wx-wx3wx--3- 804.6 0.1- 0.012----- 11.2
2019-07-04 05:00:00 4.5 -0.5 1.8--- 7050.0wx-wx3wx--3- 804.4 0.1---------
2019-07-04 04:00:00 4.4 -0.6 1.7--- 7050.0wx-wx2wx--2- 804.3 -0.1---------
2019-07-04 03:00:00 3.9 -0.9 1.3--- 7150.0wx-wxwx4wx--4- 804.5 -0.3---------
2019-07-04 02:00:00 4.3 0.8 2.3--- 7850.0wx-6wx--6- 804.3 -0.5---------
2019-07-04 01:00:00 3.5 0.7 1.8--- 8250.0wx-wx4wx--4- 804.4 -0.6---------
2019-07-04 00:00:00 3.9 0.6 2.0--- 7950.0wx-wx3wx--3- 804.8 -0.3- 0.06------
2019-07-03 23:00:00 4.3 0.1 2.0--- 7450.0wx-wx4wx--4- 804.8 0.0---------
2019-07-03 22:00:00 3.1 0.2 1.4--- 8150.0wx-wx2wx--2- 805.0 0.2---------
2019-07-03 21:00:00 3.4 0.6 1.7--- 8250.0wx-wx3wx--3- 805.1 0.4---------
2019-07-03 20:00:00 4.0 1.0 2.2--- 8150.0wx-wx2wx--2- 804.8 -0.1---------
2019-07-03 19:00:00 5.3 1.4 3.1--- 7650.0wxwxwxwx3wx--3- 804.8 0.0---------
2019-07-03 18:00:00 7.9 2.4 4.8 12.5 5.6- 6850.0wxwxwxwx3wx--3- 804.7 -0.1- 0.012------
2019-07-03 17:00:00 9.7 3.4 6.2--- 6550.0wxwxwxwx3wx--3- 804.9 0.0---------
2019-07-03 16:00:00 11.4 3.9 7.3--- 6050.0wxwxwxwx3wx--3- 804.8 -0.2---------
2019-07-03 15:00:00 11.4 4.4 7.5--- 6250.0wxwxwxwx3wx--3- 804.8 -0.2---------
2019-07-03 14:00:00 11.8 5.2 8.0--- 6450.0wxwxwxwx2wx--2- 804.9 0.1---------
2019-07-03 13:00:00 10.7 4.8 7.3--- 6750.0wxwxwxwx3wx--3- 805.0 0.2---------
2019-07-03 12:00:00 10.0 2.3 5.9--- 5950.0wxwxwx2wx7--- 805.0 0.3---------
2019-07-03 11:00:00 8.4 4.4 6.0--- 7650.0wxwxwx3wx--3- 804.8 0.5---------
2019-07-03 10:00:00 6.9 2.8 4.5--- 7550.0wxwxwx3wx-113- 804.8 0.8---------
2019-07-03 09:00:00 7.2 4.5 5.5--- 8350.0wxwxwx2wx---- 804.7 1.2---------
2019-07-03 08:00:00 7.0 4.6 5.5--- 8550.0wxwxwxwx5wx-95- 804.3 0.8---------
2019-07-03 07:00:00 6.6 3.7 4.8--- 8250.0wxwxwxwxwx4wx--4- 804.0 0.8---------
2019-07-03 06:00:00 5.9 3.6 4.4 11.2 4.2- 8550.0wxwxwxwxwx5wx--5- 803.5 0.2- 0.012----- 5.3
2019-07-03 05:00:00 5.9 3.6 4.4--- 8550.0wxwxwxwxwx4wx--4- 803.5 0.0---------
2019-07-03 04:00:00 4.5 3.3 3.7--- 9250.0wxwxwxwxwx5wx--5- 803.2 -0.6---------
2019-07-03 03:00:00 4.3 3.1 3.5--- 9250.0wx-wxwx5wx--5- 803.3 -0.7---------
2019-07-03 02:00:00 4.9 3.1 3.7--- 8850.0wx-wxwx6wx--6- 803.5 -0.8---------
2019-07-03 01:00:00 6.2 4.2 4.9--- 8740.0wxwxwxwx4wx--4- 803.8 -0.7---------
2019-07-03 00:00:00 5.6 4.9 5.1--- 9515.0wxwxwx3wx--3- 804.0 -0.6- 0.06wx-w1--
1.7 ms

 

Print Friendly, PDF & Email